Terminal Aerodrome Forecast
Issued by NWS Pocatello, ID

Home | Current Version | Previous Version | Text Only | Print | Product List | Glossary On
Versions: 1 2 3 4 5 6 7 8 9 10 11 12 13 14 15 16 17 18 19 20 21 22 23
000
FTUS45 KPIH 212327
TAFPIH
TAF
KPIH 212327Z 2200/2224 24015G25KT P6SM BKN015
     FM220300 24010KT P6SM SCT015 BKN020
     FM220600 21009KT P6SM SCT020
     FM221200 17010KT P6SM BKN050 WS005/17040KT
     FM221800 17015G25KT 2SM -RASN BR BKN025=

USA.gov is the U.S. government's official web portal to all federal, state and local government web resources and services.